Decoded Metar for LTCT ( in ) (IATA:) | Meteo·Mobile Aviation Weather
aviador You're here:

LTCT Decoded Metar

in
Report Time2018-09-21 02:50:00
UTC Time2018-09-21 03:45:18
Flight Rules vfr VFR
WindVRB at 03 kt
Visibility9999 m
Phenomena:N/A
Clouds:Scattered 100 Hf
Expected CloudBase > 3,600 ft AGL from Temp-Dew spread
CeilingNone
Temp17°C
Dew Point08°C (56% RH)
AAT15.5°C
QNH1020 hPa
Raw Report
METAR LTCT 210250Z VRB03KT 9999 SCT100 17/08 Q1020=

Extra information for LTCT:More info

Social comments